Time;durP1;ratioP1;P1;durP2;ratioP2;P2;SDS_P1;SDS_P2;PMS_P1;PMS_P2;Temp;Humidity;BMP_temperature;BMP_pressure;BME280_temperature;BME280_humidity;BME280_pressure;Samples;Min_cycle;Max_cycle;Signal;HPM_P1;HPM_P2
2021/11/06 00:01:24;;;;;;;11.07;2.17;;;;;;;8.62;100.00;101988.22;5066371;28;20078;-81
2021/11/06 00:03:50;;;;;;;8.23;1.88;;;;;;;8.65;100.00;101991.47;5066114;28;20035;-81
2021/11/06 00:06:16;;;;;;;9.68;1.65;;;;;;;8.66;100.00;101987.84;5065742;28;20492;-81
2021/11/06 00:08:41;;;;;;;5.20;0.97;;;;;;;8.69;100.00;101976.13;5049803;28;20107;-81
2021/11/06 00:11:07;;;;;;;6.90;1.17;;;;;;;8.76;100.00;101969.34;5066478;28;20032;-80
2021/11/06 00:13:32;;;;;;;3.53;1.13;;;;;;;8.80;100.00;101954.81;5065911;28;20040;-81
2021/11/06 00:15:57;;;;;;;5.70;1.20;;;;;;;8.73;100.00;101932.28;5066368;28;20043;-81
2021/11/06 00:18:23;;;;;;;4.50;0.90;;;;;;;8.70;100.00;101913.91;5067266;28;20036;-81
2021/11/06 00:20:48;;;;;;;3.93;0.93;;;;;;;8.68;100.00;101904.34;5066274;28;20454;-81
2021/11/06 00:23:15;;;;;;;17.40;1.40;;;;;;;8.62;100.00;101889.72;5066125;28;20525;-81
2021/11/06 00:25:41;;;;;;;7.45;0.82;;;;;;;8.58;100.00;101880.28;5067401;28;20289;-80
2021/11/06 00:28:06;;;;;;;4.93;0.75;;;;;;;8.72;100.00;101885.34;5067131;28;20098;-80
2021/11/06 00:30:32;;;;;;;4.67;0.73;;;;;;;8.62;100.00;101855.94;5066253;28;20454;-80
2021/11/06 00:32:58;;;;;;;2.47;1.00;;;;;;;8.59;100.00;101847.34;5067027;28;20502;-81
2021/11/06 00:35:24;;;;;;;4.68;0.70;;;;;;;8.52;100.00;101830.16;5065588;28;20311;-81
2021/11/06 00:37:50;;;;;;;;;;;;;;;8.62;100.00;101836.47;5066478;28;20510;-80
2021/11/06 00:40:16;;;;;;;;;;;;;;;8.67;100.00;101839.59;5067489;28;20019;-80
2021/11/06 00:42:42;;;;;;;;;;;;;;;8.64;100.00;101837.19;5067607;28;19912;-81
2021/11/06 00:45:08;;;;;;;2.17;0.45;;;;;;;8.63;100.00;101838.16;5049113;28;19915;-80
2021/11/06 00:47:35;;;;;;;3.13;0.50;;;;;;;8.68;100.00;101851.09;5065999;28;20044;-81
2021/11/06 00:50:00;;;;;;;;;;;;;;;8.70;100.00;101870.47;5066205;28;20048;-81
2021/11/06 00:52:26;;;;;;;;;;;;;;;8.73;100.00;101897.66;5068595;28;19931;-79
2021/11/06 00:54:51;;;;;;;0.67;0.37;;;;;;;8.63;100.00;101886.06;5069440;28;19916;-81
2021/11/06 00:57:17;;;;;;;3.70;0.40;;;;;;;8.71;100.00;101894.31;5053072;28;20036;-80
2021/11/06 00:59:42;;;;;;;4.03;0.90;;;;;;;8.73;100.00;101912.81;5053261;28;20047;-81
2021/11/06 01:02:07;;;;;;;2.40;1.03;;;;;;;8.73;100.00;101913.63;5070373;28;20124;-81
2021/11/06 01:04:33;;;;;;;4.70;1.67;;;;;;;8.69;100.00;101922.88;5070087;28;20025;-81
2021/11/06 01:06:58;;;;;;;4.70;1.95;;;;;;;8.70;100.00;101937.84;5070163;28;20025;-81
2021/11/06 01:09:24;;;;;;;8.93;2.40;;;;;;;8.71;100.00;101941.34;5052848;28;20056;-81
2021/11/06 01:11:49;;;;;;;6.10;1.87;;;;;;;8.75;100.00;101946.31;5070459;28;20495;-80
2021/11/06 01:14:15;;;;;;;5.13;1.98;;;;;;;8.77;100.00;101956.88;5069047;28;20363;-81
2021/11/06 01:16:41;;;;;;;3.50;2.13;;;;;;;8.63;100.00;101949.97;5069223;28;20060;-81
2021/11/06 01:19:06;;;;;;;6.60;1.50;;;;;;;8.74;100.00;101954.44;5069379;28;20057;-81
2021/11/06 01:21:32;;;;;;;3.27;1.93;;;;;;;8.70;100.00;101950.31;5070507;28;20704;-82
2021/11/06 01:23:57;;;;;;;4.00;2.03;;;;;;;8.70;100.00;101945.84;5070208;28;20024;-81
2021/11/06 01:26:23;;;;;;;7.97;2.47;;;;;;;8.68;100.00;101953.09;5069325;28;20654;-81
2021/11/06 01:28:48;;;;;;;4.07;1.80;;;;;;;8.65;100.00;101969.31;5069203;28;20413;-81
2021/11/06 01:31:14;;;;;;;8.60;2.00;;;;;;;8.62;100.00;101969.56;5068934;28;20046;-81
2021/11/06 01:33:39;;;;;;;5.40;1.33;;;;;;;8.68;100.00;101977.06;5068854;28;20044;-80
2021/11/06 01:36:05;;;;;;;4.13;1.47;;;;;;;8.62;100.00;101980.22;5052446;28;20128;-81
2021/11/06 01:38:31;;;;;;;7.28;1.92;;;;;;;8.60;100.00;101993.66;5069747;28;20102;-81
2021/11/06 01:40:56;;;;;;;5.70;1.98;;;;;;;8.65;100.00;102006.59;5069997;28;20036;-82
2021/11/06 01:43:22;;;;;;;5.35;1.30;;;;;;;8.59;100.00;102015.06;5069695;28;20028;-82
2021/11/06 01:46:01;;;;;;;6.10;1.52;;;;;;;8.56;100.00;102024.13;5068757;28;20024;-81
2021/11/06 01:48:28;;;;;;;2.45;1.10;;;;;;;8.62;100.00;102031.66;5068834;28;20438;-83
2021/11/06 01:50:55;;;;;;;2.83;0.85;;;;;;;8.71;100.00;102046.06;5069032;28;20036;-84
2021/11/06 01:53:20;;;;;;;3.70;0.90;;;;;;;8.63;100.00;102029.81;5069792;28;20359;-84
2021/11/06 01:55:48;;;;;;;3.67;0.68;;;;;;;8.62;100.00;102038.78;5069732;28;20039;-84
2021/11/06 01:58:13;;;;;;;0.55;0.47;;;;;;;8.52;100.00;102032.47;5052240;28;20117;-85
2021/11/06 02:00:40;;;;;;;0.85;0.40;;;;;;;8.46;100.00;102044.44;5052609;28;20110;-85
2021/11/06 02:03:06;;;;;;;1.70;0.32;;;;;;;8.44;100.00;102049.88;5068503;28;20464;-85
2021/11/06 02:05:32;;;;;;;0.68;0.43;;;;;;;8.38;100.00;102046.78;5068636;28;20024;-84
2021/11/06 02:07:57;;;;;;;4.50;0.57;;;;;;;8.38;100.00;102041.47;5067448;28;20084;-84
2021/11/06 02:10:23;;;;;;;1.77;0.97;;;;;;;8.31;100.00;102038.44;5068886;28;20522;-84
2021/11/06 02:12:49;;;;;;;2.47;0.90;;;;;;;8.37;100.00;102050.44;5085840;28;20039;-84
2021/11/06 02:15:16;;;;;;;;;;;;;;;8.42;100.00;102058.94;5069885;28;20044;-84
2021/11/06 02:17:42;;;;;;;5.93;2.33;;;;;;;8.47;100.00;102051.44;5069309;28;20364;-83
2021/11/06 02:20:09;;;;;;;9.30;2.50;;;;;;;8.54;100.00;102051.81;5068582;28;20086;-84
2021/11/06 02:22:34;;;;;;;5.28;3.63;;;;;;;8.43;100.00;102032.22;5069486;28;20028;-83
2021/11/06 02:25:01;;;;;;;4.60;3.40;;;;;;;8.46;100.00;102031.13;5068279;28;20351;-83
2021/11/06 02:27:26;;;;;;;8.48;3.90;;;;;;;8.39;100.00;102011.25;5068355;28;20040;-84
2021/11/06 02:29:52;;;;;;;7.10;3.40;;;;;;;8.36;100.00;102020.31;5068301;28;20077;-84
2021/11/06 02:32:18;;;;;;;6.78;3.33;;;;;;;8.41;100.00;102036.81;5068162;28;20048;-83
2021/11/06 02:34:44;;;;;;;11.20;4.13;;;;;;;8.41;100.00;102027.97;5051347;28;20050;-83
2021/11/06 02:37:09;;;;;;;9.57;3.13;;;;;;;8.39;100.00;102028.06;5069064;28;20051;-82
2021/11/06 02:39:36;;;;;;;7.85;3.67;;;;;;;8.36;100.00;102027.44;5068788;28;20750;-82
2021/11/06 02:42:06;;;;;;;15.88;3.58;;;;;;;8.37;100.00;102024.66;5051492;28;20037;-83
2021/11/06 02:44:32;;;;;;;14.05;4.07;;;;;;;8.33;100.00;102007.22;5068480;28;20066;-82
2021/11/06 02:46:57;;;;;;;8.88;2.58;;;;;;;8.43;100.00;102002.09;5067681;28;20036;-83
2021/11/06 02:49:23;;;;;;;7.10;2.43;;;;;;;8.44;100.00;101980.66;5067707;28;20393;-82
2021/11/06 02:51:49;;;;;;;4.10;2.33;;;;;;;8.39;100.00;101942.88;5067750;28;20556;-81
2021/11/06 02:54:15;;;;;;;8.50;3.45;;;;;;;8.40;100.00;101944.59;5050667;28;20051;-81
2021/11/06 02:56:40;;;;;;;9.25;2.63;;;;;;;8.45;100.00;101937.13;5067585;28;20041;-81
2021/11/06 02:59:06;;;;;;;5.18;2.50;;;;;;;8.40;100.00;101927.78;5067505;28;20102;-81
2021/11/06 03:01:32;;;;;;;8.02;3.00;;;;;;;8.45;100.00;101926.50;5067279;28;20036;-81
2021/11/06 03:03:57;;;;;;;6.80;2.93;;;;;;;8.36;100.00;101916.53;5068161;28;20472;-81
2021/11/06 03:06:23;;;;;;;6.27;2.67;;;;;;;8.38;100.00;101919.91;5050275;28;20717;-81
2021/11/06 03:08:48;;;;;;;9.10;3.77;;;;;;;8.32;100.00;101915.06;5067148;28;20051;-81
2021/11/06 03:11:13;;;;;;;9.43;4.10;;;;;;;8.38;100.00;101919.91;5068183;28;20082;-81
2021/11/06 03:13:42;;;;;;;11.57;4.87;;;;;;;8.29;100.00;101903.78;5066478;28;20052;-82
2021/11/06 03:16:09;;;;;;;11.48;3.70;;;;;;;8.35;100.00;101914.81;5066792;28;20317;-81
2021/11/06 03:18:34;;;;;;;14.43;4.80;;;;;;;8.43;100.00;101924.91;5067973;28;20044;-81
2021/11/06 03:21:00;;;;;;;11.68;5.10;;;;;;;8.30;100.00;101898.38;5067172;28;20044;-81
2021/11/06 03:23:27;;;;;;;11.17;4.93;;;;;;;8.40;100.00;101918.00;5066972;28;20040;-82
2021/11/06 03:25:57;;;;;;;15.52;5.07;;;;;;;8.45;100.00;101920.28;5068132;28;20036;-80
2021/11/06 03:28:22;;;;;;;16.45;6.15;;;;;;;8.35;100.00;101909.50;5067055;28;20028;-80
2021/11/06 03:30:48;;;;;;;14.80;5.55;;;;;;;8.43;100.00;101917.78;5066908;28;20354;-80
2021/11/06 03:33:14;;;;;;;24.55;6.15;;;;;;;8.44;100.00;101924.78;5066024;28;20036;-81
2021/11/06 03:35:40;;;;;;;14.80;6.22;;;;;;;8.45;100.00;101923.81;5065671;28;20050;-81
2021/11/06 03:38:05;;;;;;;12.07;6.45;;;;;;;8.43;100.00;101907.13;5065290;28;20396;-80
2021/11/06 03:40:31;;;;;;;12.00;6.50;;;;;;;8.44;100.00;101916.78;5065102;28;20024;-81
2021/11/06 03:42:57;;;;;;;15.98;6.32;;;;;;;8.42;100.00;101905.41;5064953;28;20028;-80
2021/11/06 03:45:23;;;;;;;17.25;7.93;;;;;;;8.51;100.00;101911.00;5064855;28;20037;-80
2021/11/06 03:47:49;;;;;;;24.67;8.07;;;;;;;8.52;100.00;101918.00;5064922;28;20569;-80
2021/11/06 03:50:14;;;;;;;25.85;8.38;;;;;;;8.46;100.00;101903.38;5065111;28;20040;-80
2021/11/06 03:52:40;;;;;;;17.58;7.72;;;;;;;8.42;100.00;101896.59;5067589;28;20051;-81
2021/11/06 03:55:08;;;;;;;;;;;;;;;8.44;100.00;101903.50;5067847;28;20362;-81
2021/11/06 03:57:34;;;;;;;14.88;7.53;;;;;;;8.41;100.00;101903.75;5067429;28;19923;-80
2021/11/06 04:00:00;;;;;;;19.45;8.65;;;;;;;8.41;100.00;101906.41;5066502;28;20024;-80
2021/11/06 04:02:25;;;;;;;19.13;8.23;;;;;;;8.41;100.00;101919.72;5067793;28;20102;-81
2021/11/06 04:04:51;;;;;;;17.73;6.80;;;;;;;8.49;100.00;101931.56;5067095;28;20394;-80
2021/11/06 04:07:16;;;;;;;22.23;8.47;;;;;;;8.42;100.00;101908.06;5066390;28;20029;-80
2021/11/06 04:09:42;;;;;;;19.77;7.80;;;;;;;8.38;100.00;101898.63;5066362;28;20454;-80
2021/11/06 04:12:08;;;;;;;18.08;7.82;;;;;;;8.41;100.00;101902.91;5067339;28;20036;-79
2021/11/06 04:14:33;;;;;;;14.55;6.65;;;;;;;8.42;100.00;101909.91;5065998;28;20413;-80
2021/11/06 04:16:59;;;;;;;19.80;7.87;;;;;;;8.51;100.00;101913.66;5066610;28;20024;-80
2021/11/06 04:19:24;;;;;;;15.88;6.80;;;;;;;8.47;100.00;101906.88;5049563;28;20074;-80
2021/11/06 04:21:50;;;;;;;20.77;6.17;;;;;;;8.32;100.00;101877.81;5066285;28;20043;-79
2021/11/06 04:24:15;;;;;;;17.38;7.80;;;;;;;8.38;100.00;101898.63;5049305;28;20044;-80
2021/11/06 04:26:41;;;;;;;15.93;7.32;;;;;;;8.25;100.00;101887.25;5069199;28;20032;-80
2021/11/06 04:29:06;;;;;;;12.60;6.87;;;;;;;8.37;100.00;101923.53;5070978;28;20065;-80
2021/11/06 04:31:32;;;;;;;20.97;7.67;;;;;;;8.30;100.00;101930.28;5070280;28;20450;-79
2021/11/06 04:34:00;;;;;;;25.93;8.53;;;;;;;8.36;100.00;101947.63;5070807;28;20028;-80
2021/11/06 04:36:26;;;;;;;23.38;8.63;;;;;;;8.36;100.00;101947.63;5070068;28;20036;-80
2021/11/06 04:38:52;;;;;;;18.73;7.93;;;;;;;8.25;100.00;101948.44;5069885;28;20040;-80
2021/11/06 04:41:17;;;;;;;18.87;9.87;;;;;;;8.32;100.00;101962.13;5053096;28;20066;-80
2021/11/06 04:43:43;;;;;;;19.00;8.15;;;;;;;8.36;100.00;101972.41;5070533;28;20071;-81
2021/11/06 04:46:08;;;;;;;13.70;7.88;;;;;;;8.38;100.00;101967.81;5071278;28;20032;-81
2021/11/06 04:48:34;;;;;;;19.30;9.17;;;;;;;8.35;100.00;101968.03;5071380;28;20434;-81
2021/11/06 04:50:59;;;;;;;18.20;8.23;;;;;;;8.31;100.00;101950.63;5069867;28;20079;-80
2021/11/06 04:53:25;;;;;;;25.23;8.38;;;;;;;8.25;100.00;101941.28;5052283;28;20043;-81
2021/11/06 04:55:50;;;;;;;21.47;9.50;;;;;;;8.35;100.00;101967.19;5070407;28;20051;-80
2021/11/06 04:58:16;;;;;;;14.77;8.33;;;;;;;8.36;100.00;101971.56;5068488;28;20047;-80
2021/11/06 05:00:41;;;;;;;16.13;7.32;;;;;;;8.35;100.00;101962.72;5053010;28;20036;-81
2021/11/06 05:03:07;;;;;;;24.53;10.50;;;;;;;8.37;100.00;101966.09;5069338;28;20039;-80
2021/11/06 05:05:33;;;;;;;19.92;7.80;;;;;;;8.31;100.00;101963.94;5069402;28;20283;-81
2021/11/06 05:07:58;;;;;;;15.30;9.00;;;;;;;8.38;100.00;101967.81;5070346;28;20033;-80
2021/11/06 05:10:24;;;;;;;15.07;8.33;;;;;;;8.43;100.00;101962.19;5069283;28;20029;-80
2021/11/06 05:12:50;;;;;;;23.40;9.05;;;;;;;8.38;100.00;101954.50;5070093;28;20336;-79
2021/11/06 05:15:16;;;;;;;16.63;7.95;;;;;;;8.41;100.00;101948.97;5070311;28;20040;-81
2021/11/06 05:17:42;;;;;;;;;;;;;;;8.41;100.00;101942.81;5054201;28;20079;-80
2021/11/06 05:20:08;;;;;;;;;;;;;;;8.36;100.00;101932.50;5070808;28;19951;-80
2021/11/06 05:22:34;;;;;;;15.13;7.55;;;;;;;8.33;100.00;101929.22;5070547;28;19912;-80
2021/11/06 05:25:02;;;;;;;17.95;9.82;;;;;;;8.41;100.00;101948.13;5070884;28;20044;-80
2021/11/06 05:27:28;;;;;;;19.33;8.40;;;;;;;8.33;100.00;101945.19;5071237;28;20438;-79
2021/11/06 05:29:55;;;;;;;16.42;8.35;;;;;;;8.25;100.00;101941.28;5071081;28;20181;-80
2021/11/06 05:32:20;;;;;;;22.67;8.70;;;;;;;8.34;100.00;101957.53;5070356;28;20040;-80
2021/11/06 05:34:46;;;;;;;23.17;8.23;;;;;;;8.32;100.00;101944.34;5069634;28;20047;-81
2021/11/06 05:37:11;;;;;;;15.07;8.23;;;;;;;8.31;100.00;101949.75;5070188;28;20055;-81
2021/11/06 05:39:37;;;;;;;20.37;8.47;;;;;;;8.29;100.00;101949.03;5070682;28;20290;-80
2021/11/06 05:42:02;;;;;;;22.90;9.07;;;;;;;8.33;100.00;101953.16;5070484;28;20416;-80
2021/11/06 05:44:29;;;;;;;21.38;9.20;;;;;;;8.27;100.00;101941.19;5069922;28;20036;-80
2021/11/06 05:46:54;;;;;;;18.77;8.00;;;;;;;8.23;100.00;101942.38;5070177;28;20085;-80
2021/11/06 05:49:20;;;;;;;22.00;7.90;;;;;;;8.28;100.00;101948.19;5071167;28;20051;-79
2021/11/06 05:51:46;;;;;;;18.93;7.67;;;;;;;8.30;100.00;101954.25;5053296;28;20286;-81
2021/11/06 05:54:13;;;;;;;25.00;9.47;;;;;;;8.21;100.00;101954.94;5070614;28;20382;-85
2021/11/06 05:56:38;;;;;;;15.80;8.68;;;;;;;8.25;100.00;101988.34;5071165;28;20033;-83
2021/11/06 05:59:04;;;;;;;23.95;9.52;;;;;;;8.18;100.00;102011.06;5070879;28;20048;-83
2021/11/06 06:01:30;;;;;;;20.20;11.67;;;;;;;8.08;100.00;102012.69;5070412;28;20035;-81
2021/11/06 06:03:55;;;;;;;19.77;9.52;;;;;;;8.19;100.00;102052.66;5069880;28;20420;-82
2021/11/06 06:06:21;;;;;;;21.63;9.17;;;;;;;8.13;100.00;102066.44;5053119;28;20032;-82
2021/11/06 06:08:47;;;;;;;34.40;11.45;;;;;;;8.15;100.00;102083.13;5069928;28;20028;-82
2021/11/06 06:11:12;;;;;;;20.25;11.00;;;;;;;8.12;100.00;102104.63;5053299;28;20097;-81
2021/11/06 06:13:38;;;;;;;20.57;10.90;;;;;;;8.04;100.00;102107.84;5069620;28;20090;-82
2021/11/06 06:16:04;;;;;;;26.30;12.45;;;;;;;8.14;100.00;102131.97;5069615;28;20040;-81
2021/11/06 06:18:29;;;;;;;22.65;12.18;;;;;;;8.10;100.00;102142.00;5069454;28;20125;-78
2021/11/06 06:20:54;;;;;;;18.30;10.37;;;;;;;8.07;100.00;102152.00;5070385;28;20112;-78
2021/11/06 06:23:20;;;;;;;27.23;12.00;;;;;;;8.10;100.00;102149.09;5070223;28;20059;-77
2021/11/06 06:25:46;;;;;;;25.80;11.63;;;;;;;8.07;100.00;102139.53;5069213;28;20116;-79
2021/11/06 06:28:12;;;;;;;26.07;12.83;;;;;;;8.00;100.00;102155.09;5052844;28;20513;-78
2021/11/06 06:30:38;;;;;;;27.80;12.35;;;;;;;8.07;100.00;102168.78;5069424;28;20091;-77
2021/11/06 06:33:05;;;;;;;24.48;12.70;;;;;;;8.19;100.00;102186.53;5069263;28;20070;-77
2021/11/06 06:35:30;;;;;;;;;;;;;;;8.18;100.00;102181.31;5070475;28;20029;-78
2021/11/06 06:38:00;;;;;;;;;;;;;;;8.03;100.00;102178.81;5070640;28;19973;-79
2021/11/06 06:40:26;;;;;;;20.17;10.73;;;;;;;8.06;100.00;102192.88;5068962;28;20356;-79
2021/11/06 06:42:52;;;;;;;22.65;12.70;;;;;;;8.05;100.00;102205.28;5070150;28;20033;-80
2021/11/06 06:45:19;;;;;;;32.38;13.05;;;;;;;8.06;100.00;102222.97;5069744;28;20068;-81
2021/11/06 06:47:44;;;;;;;;;;;;;;;8.09;100.00;102238.69;5052899;28;20064;-79
2021/11/06 06:50:10;;;;;;;;;;;;;;;8.06;100.00;102230.94;5069439;28;19956;-80
2021/11/06 06:52:35;;;;;;;24.70;12.95;;;;;;;8.02;100.00;102235.63;5069925;28;19913;-81
2021/11/06 06:55:02;;;;;;;26.75;13.68;;;;;;;8.00;100.00;102229.56;5071327;28;20067;-80
2021/11/06 06:57:28;;;;;;;22.67;11.25;;;;;;;8.07;100.00;102251.25;5069178;28;20032;-80
2021/11/06 06:59:53;;;;;;;25.50;13.17;;;;;;;8.06;100.00;102238.09;5068965;28;20031;-79
2021/11/06 07:02:19;;;;;;;22.10;11.87;;;;;;;8.10;100.00;102232.44;5068837;28;20541;-79
2021/11/06 07:04:45;;;;;;;23.48;11.85;;;;;;;8.18;100.00;102231.88;5068553;28;20029;-79
2021/11/06 07:07:10;;;;;;;26.27;12.83;;;;;;;8.11;100.00;102214.66;5068604;28;20361;-79
2021/11/06 07:09:36;;;;;;;19.57;12.53;;;;;;;8.11;100.00;102217.31;5068639;28;20373;-80
2021/11/06 07:12:02;;;;;;;;;;;;;;;8.06;100.00;102195.53;5069116;28;20116;-79
2021/11/06 07:14:27;;;;;;;;;;;;;;;8.12;100.00;102197.72;5068666;28;20306;-80
2021/11/06 07:16:53;;;;;;;31.67;12.77;;;;;;;8.00;100.00;102170.19;5068814;28;19912;-80
2021/11/06 07:19:18;;;;;;;22.60;13.70;;;;;;;8.09;100.00;102185.50;5068616;28;20040;-78
2021/11/06 07:21:44;;;;;;;31.37;15.43;;;;;;;8.10;100.00;102186.34;5069398;28;20032;-79
2021/11/06 07:24:10;;;;;;;25.90;13.37;;;;;;;8.13;100.00;102175.50;5067645;28;20612;-79
2021/11/06 07:26:35;;;;;;;23.00;12.98;;;;;;;8.11;100.00;102166.78;5069143;28;20093;-79
2021/11/06 07:29:01;;;;;;;30.15;14.52;;;;;;;8.03;100.00;102140.75;5069058;28;20036;-78
2021/11/06 07:31:26;;;;;;;26.30;13.13;;;;;;;8.01;100.00;102140.84;5069067;28;20689;-78
2021/11/06 07:33:54;;;;;;;27.42;14.88;;;;;;;8.03;100.00;102146.06;5067667;28;20032;-79
2021/11/06 07:36:21;;;;;;;27.33;14.65;;;;;;;7.99;100.00;102141.91;5068748;28;20370;-78
2021/11/06 07:38:47;;;;;;;22.90;14.10;;;;;;;7.90;100.00;102146.09;5068722;28;20017;-78
2021/11/06 07:41:12;;;;;;;23.52;14.75;;;;;;;7.94;100.00;102160.88;5067930;28;20092;-80
2021/11/06 07:43:38;;;;;;;32.60;15.98;;;;;;;7.97;100.00;102160.63;5067662;28;20062;-79
2021/11/06 07:46:04;;;;;;;32.88;17.42;;;;;;;7.90;100.00;102156.72;5051135;28;20031;-79
2021/11/06 07:48:30;;;;;;;;;;;;;;;7.86;100.00;102173.84;5068622;28;20040;-79
2021/11/06 07:50:56;;;;;;;;;;;;;;;7.95;100.00;102215.75;5068514;28;19943;-79
2021/11/06 07:53:21;;;;;;;31.08;15.70;;;;;;;7.96;100.00;102237.84;5068564;28;20337;-80
2021/11/06 07:55:47;;;;;;;41.70;18.08;;;;;;;7.89;100.00;102224.19;5067450;28;20044;-79
2021/11/06 07:58:14;;;;;;;30.67;17.03;;;;;;;7.92;100.00;102223.94;5067547;28;20029;-79
2021/11/06 08:00:40;;;;;;;40.35;18.02;;;;;;;7.98;100.00;102223.53;5067999;28;20483;-78
2021/11/06 08:03:05;;;;;;;39.95;16.45;;;;;;;8.01;100.00;102225.09;5067759;28;20042;-79
2021/11/06 08:05:31;;;;;;;30.47;16.63;;;;;;;8.01;100.00;102219.78;5067246;28;20036;-81
2021/11/06 08:07:57;;;;;;;29.35;15.95;;;;;;;8.01;100.00;102207.34;5066174;28;20103;-81
2021/11/06 08:10:23;;;;;;;27.23;15.90;;;;;;;7.99;100.00;102190.63;5067214;28;20066;-82
2021/11/06 08:12:49;;;;;;;28.27;14.93;;;;;;;8.03;100.00;102170.00;5067825;28;20047;-83
2021/11/06 08:15:15;;;;;;;29.88;17.17;;;;;;;8.06;100.00;102153.81;5067215;28;20033;-82
2021/11/06 08:17:42;;;;;;;37.22;17.80;;;;;;;8.10;100.00;102142.00;5067726;28;20450;-82
2021/11/06 08:20:08;;;;;;;34.60;16.73;;;;;;;8.17;100.00;102135.25;5049836;28;20036;-83
2021/11/06 08:22:34;;;;;;;;;;;;;;;8.26;100.00;102144.34;5067663;28;20020;-81
2021/11/06 08:25:00;;;;;;;34.65;15.20;;;;;;;8.33;100.00;102126.13;5067515;28;20231;-81
2021/11/06 08:27:25;;;;;;;30.08;15.43;;;;;;;8.25;100.00;102108.06;5069050;28;20033;-80
2021/11/06 08:29:51;;;;;;;32.17;17.67;;;;;;;8.20;100.00;102099.59;5067939;28;20129;-81
2021/11/06 08:32:16;;;;;;;31.97;17.90;;;;;;;8.22;100.00;102105.66;5068975;28;20032;-83
2021/11/06 08:34:42;;;;;;;34.10;17.27;;;;;;;8.59;100.00;102148.16;5050669;28;20283;-81
2021/11/06 08:37:09;;;;;;;31.15;17.23;;;;;;;8.45;100.00;102119.91;5067375;28;20585;-79
2021/11/06 08:39:35;;;;;;;28.58;16.50;;;;;;;8.34;100.00;102078.13;5067377;28;20059;-79
2021/11/06 08:42:00;;;;;;;30.95;18.42;;;;;;;8.39;100.00;102059.16;5067468;28;20025;-79
2021/11/06 08:44:25;;;;;;;32.70;18.33;;;;;;;8.33;100.00;102040.97;5068144;28;20568;-79
2021/11/06 08:46:54;;;;;;;31.07;17.27;;;;;;;8.26;100.00;102024.63;5067463;28;20056;-80
2021/11/06 08:49:20;;;;;;;35.80;19.38;;;;;;;8.25;100.00;102021.13;5050699;28;20032;-80
2021/11/06 08:51:47;;;;;;;34.90;19.20;;;;;;;8.30;100.00;102015.44;5068031;28;20048;-80
2021/11/06 08:54:15;;;;;;;37.72;18.08;;;;;;;8.31;100.00;102011.84;5066744;28;20681;-79
2021/11/06 08:56:42;;;;;;;35.05;18.83;;;;;;;8.40;100.00;102007.63;5067784;28;20033;-79
2021/11/06 08:59:08;;;;;;;37.08;19.63;;;;;;;8.32;100.00;101994.91;5067999;28;20365;-78
2021/11/06 09:01:34;;;;;;;;;;;;;;;8.45;100.00;102001.00;5068648;28;20040;-78
2021/11/06 09:04:00;;;;;;;;;;;;;;;8.50;100.00;101994.47;5067463;28;19908;-78
2021/11/06 09:06:25;;;;;;;45.70;19.23;;;;;;;8.30;100.00;101967.56;5066245;28;19915;-77
2021/11/06 09:08:51;;;;;;;29.47;17.90;;;;;;;8.35;100.00;101962.72;5067816;28;20046;-78
2021/11/06 09:11:17;;;;;;;33.22;18.52;;;;;;;8.37;100.00;101959.94;5066484;28;20032;-78
2021/11/06 09:13:49;;;;;;;43.20;20.92;;;;;;;8.45;100.00;101954.91;5069421;28;20480;-77
2021/11/06 09:16:15;;;;;;;34.05;18.55;;;;;;;8.42;100.00;101953.31;5070703;28;20598;-79
2021/11/06 09:18:41;;;;;;;34.67;18.20;;;;;;;8.40;100.00;101949.94;5071424;28;20119;-77
2021/11/06 09:21:08;;;;;;;37.45;19.33;;;;;;;8.40;100.00;101931.31;5070446;28;20036;-78
2021/11/06 09:23:35;;;;;;;37.25;19.25;;;;;;;8.40;100.00;101923.31;5070475;28;20033;-78
2021/11/06 09:26:01;;;;;;;39.83;18.88;;;;;;;8.50;100.00;101922.59;5053806;28;20085;-77
2021/11/06 09:28:27;;;;;;;33.22;18.98;;;;;;;8.52;100.00;101926.00;5071449;28;20048;-79
2021/11/06 09:30:54;;;;;;;38.22;19.75;;;;;;;8.50;100.00;101917.28;5071363;28;20043;-78
2021/11/06 09:33:20;;;;;;;32.22;17.88;;;;;;;8.59;100.00;101912.09;5069855;28;20037;-77
2021/11/06 09:35:46;;;;;;;35.55;19.50;;;;;;;8.55;100.00;101896.50;5053424;28;20554;-78
2021/11/06 09:38:11;;;;;;;33.60;17.52;;;;;;;8.52;100.00;101891.38;5069948;28;20044;-77
2021/11/06 09:40:37;;;;;;;34.07;20.30;;;;;;;8.60;100.00;101887.16;5070131;28;20082;-77
2021/11/06 09:43:03;;;;;;;26.70;17.17;;;;;;;8.53;100.00;101871.81;5070192;28;20032;-77
2021/11/06 09:45:29;;;;;;;33.92;17.15;;;;;;;8.64;100.00;101866.47;5068592;28;20433;-78
2021/11/06 09:47:55;;;;;;;34.50;17.55;;;;;;;8.70;100.00;101857.16;5069300;28;20072;-79
2021/11/06 09:50:22;;;;;;;28.70;16.25;;;;;;;8.77;100.00;101859.19;5068608;28;20039;-78
2021/11/06 09:52:49;;;;;;;29.50;16.50;;;;;;;8.78;100.00;101839.59;5068371;28;20043;-79
2021/11/06 09:55:18;;;;;;;32.42;16.42;;;;;;;8.83;100.00;101845.38;5068127;28;20039;-79
2021/11/06 09:57:45;;;;;;;24.88;16.52;;;;;;;8.75;100.00;101823.00;5069681;28;20036;-78
2021/11/06 10:00:12;;;;;;;25.58;17.10;;;;;;;8.81;100.00;101823.34;5069246;28;20138;-78
2021/11/06 10:02:38;;;;;;;28.10;15.35;;;;;;;8.79;100.00;101829.78;5069490;28;20048;-79
2021/11/06 10:05:04;;;;;;;27.17;15.32;;;;;;;8.90;100.00;101832.41;5067934;28;20032;-79
2021/11/06 10:07:30;;;;;;;31.33;15.05;;;;;;;8.86;100.00;101823.81;5068498;28;20042;-79
2021/11/06 10:10:10;;;;;;;25.65;15.23;;;;;;;8.84;100.00;101825.75;5069357;28;20037;-79
2021/11/06 10:12:57;;;;;;;28.35;17.20;;;;;;;8.72;100.00;101810.78;5068043;28;20173;-79
2021/11/06 10:15:25;;;;;;;31.50;17.75;;;;;;;8.77;100.00;101823.72;5067880;28;20079;-80
2021/11/06 10:17:51;;;;;;;28.02;16.33;;;;;;;8.75;100.00;101810.53;5069043;28;20127;-78
2021/11/06 10:20:27;;;;;;;33.92;18.60;;;;;;;8.72;100.00;101801.97;5068226;28;20040;-80
2021/11/06 10:22:54;;;;;;;30.92;18.83;;;;;;;8.70;100.00;101804.72;5068553;28;20032;-80
2021/11/06 10:25:22;;;;;;;45.08;19.92;;;;;;;8.71;100.00;101814.44;5068710;28;20316;-79
2021/11/06 10:27:52;;;;;;;32.40;19.00;;;;;;;8.75;100.00;101815.84;5067890;28;20430;-80
2021/11/06 10:30:24;;;;;;;34.25;20.38;;;;;;;8.54;100.00;101780.31;5068833;28;20036;-79
2021/11/06 10:33:06;;;;;;;41.22;19.98;;;;;;;8.64;100.00;101805.25;5067799;28;20044;-78
2021/11/06 10:35:38;;;;;;;51.67;22.02;;;;;;;8.64;100.00;101808.75;5067515;28;20365;-80
2021/11/06 10:38:11;;;;;;;38.65;21.63;;;;;;;8.63;100.00;101809.72;5068706;28;20036;-80
2021/11/06 10:40:43;;;;;;;35.92;20.00;;;;;;;8.65;100.00;101810.44;5068090;28;20039;-80
2021/11/06 10:43:11;;;;;;;45.83;23.40;;;;;;;8.61;100.00;101810.81;5067568;28;20040;-79
2021/11/06 10:45:44;;;;;;;43.92;22.80;;;;;;;8.57;100.00;101804.03;5068836;28;20115;-79
2021/11/06 10:48:16;;;;;;;39.47;21.58;;;;;;;8.71;100.00;101819.75;5067302;28;20036;-79
2021/11/06 10:50:58;;;;;;;44.05;24.20;;;;;;;8.69;100.00;101799.56;5050684;28;20039;-79
2021/11/06 10:53:56;;;;;;;40.15;21.35;;;;;;;8.72;100.00;101792.16;5066827;28;20481;-78
2021/11/06 10:56:37;;;;;;;43.33;23.52;;;;;;;8.60;100.00;101774.53;5067175;28;20044;-78
2021/11/06 10:59:14;;;;;;;44.65;24.00;;;;;;;8.62;100.00;101775.25;5067363;28;20465;-79
2021/11/06 11:01:42;;;;;;;42.42;23.58;;;;;;;8.70;100.00;101774.63;5065589;28;20032;-80
2021/11/06 11:04:11;;;;;;;38.55;23.23;;;;;;;8.66;100.00;101758.91;5065095;28;20257;-80
2021/11/06 11:06:40;;;;;;;33.30;20.58;;;;;;;8.75;100.00;101767.94;5066262;28;20028;-80
2021/11/06 11:09:11;;;;;;;39.60;23.92;;;;;;;8.79;100.00;101749.91;5066340;28;20033;-80
2021/11/06 11:11:37;;;;;;;36.28;21.20;;;;;;;8.79;100.00;101745.41;5065418;28;20047;-79
2021/11/06 11:14:05;;;;;;;34.90;20.25;;;;;;;8.85;100.00;101739.59;5064967;28;20032;-79
2021/11/06 11:16:32;;;;;;;38.58;19.55;;;;;;;8.90;100.00;101733.00;5050071;28;20457;-79
2021/11/06 11:19:04;;;;;;;40.63;19.80;;;;;;;8.95;100.00;101736.16;5067696;28;20079;-80